sensor_id;sensor_type;location;lat;lon;timestamp;P1;durP1;ratioP1;P2;durP2;ratioP2
33475;SDS011;19814;48.224;11.422;2023-08-24T00:01:27;8.35;;;6.28;;
33475;SDS011;19814;48.224;11.422;2023-08-24T00:03:52;8.50;;;6.13;;
33475;SDS011;19814;48.224;11.422;2023-08-24T00:06:18;7.50;;;5.75;;
33475;SDS011;19814;48.224;11.422;2023-08-24T00:08:43;7.28;;;5.85;;
33475;SDS011;19814;48.224;11.422;2023-08-24T00:11:09;8.63;;;6.03;;
33475;SDS011;19814;48.224;11.422;2023-08-24T00:13:39;8.13;;;5.93;;
33475;SDS011;19814;48.224;11.422;2023-08-24T00:16:06;7.32;;;5.78;;
33475;SDS011;19814;48.224;11.422;2023-08-24T00:18:32;11.13;;;6.63;;
33475;SDS011;19814;48.224;11.422;2023-08-24T00:20:57;8.18;;;6.05;;
33475;SDS011;19814;48.224;11.422;2023-08-24T00:23:23;8.13;;;5.85;;
33475;SDS011;19814;48.224;11.422;2023-08-24T00:25:49;8.63;;;6.25;;
33475;SDS011;19814;48.224;11.422;2023-08-24T00:28:15;6.85;;;5.65;;
33475;SDS011;19814;48.224;11.422;2023-08-24T00:30:40;8.05;;;5.82;;
33475;SDS011;19814;48.224;11.422;2023-08-24T00:33:06;7.70;;;5.95;;
33475;SDS011;19814;48.224;11.422;2023-08-24T00:35:31;8.02;;;6.20;;
33475;SDS011;19814;48.224;11.422;2023-08-24T00:37:57;8.15;;;5.30;;
33475;SDS011;19814;48.224;11.422;2023-08-24T00:40:23;7.88;;;6.32;;
33475;SDS011;19814;48.224;11.422;2023-08-24T00:42:50;9.40;;;6.10;;
33475;SDS011;19814;48.224;11.422;2023-08-24T00:45:15;9.27;;;6.15;;
33475;SDS011;19814;48.224;11.422;2023-08-24T00:47:42;8.20;;;6.15;;
33475;SDS011;19814;48.224;11.422;2023-08-24T00:50:10;6.53;;;5.18;;
33475;SDS011;19814;48.224;11.422;2023-08-24T00:52:37;7.72;;;6.05;;
33475;SDS011;19814;48.224;11.422;2023-08-24T00:55:04;9.00;;;6.22;;
33475;SDS011;19814;48.224;11.422;2023-08-24T00:57:31;8.43;;;6.18;;
33475;SDS011;19814;48.224;11.422;2023-08-24T00:59:57;8.65;;;6.80;;
33475;SDS011;19814;48.224;11.422;2023-08-24T01:02:24;9.23;;;6.05;;
33475;SDS011;19814;48.224;11.422;2023-08-24T01:04:49;7.95;;;6.25;;
33475;SDS011;19814;48.224;11.422;2023-08-24T01:07:15;10.95;;;7.35;;
33475;SDS011;19814;48.224;11.422;2023-08-24T01:09:42;9.63;;;6.88;;
33475;SDS011;19814;48.224;11.422;2023-08-24T01:17:33;8.27;;;6.70;;
33475;SDS011;19814;48.224;11.422;2023-08-24T01:20:01;8.52;;;6.28;;
33475;SDS011;19814;48.224;11.422;2023-08-24T01:22:34;8.73;;;6.40;;
33475;SDS011;19814;48.224;11.422;2023-08-24T01:25:26;9.05;;;6.57;;
33475;SDS011;19814;48.224;11.422;2023-08-24T01:28:07;8.82;;;6.40;;
33475;SDS011;19814;48.224;11.422;2023-08-24T01:30:36;8.88;;;6.22;;
33475;SDS011;19814;48.224;11.422;2023-08-24T01:33:02;9.85;;;6.55;;
33475;SDS011;19814;48.224;11.422;2023-08-24T01:35:29;10.13;;;6.30;;
33475;SDS011;19814;48.224;11.422;2023-08-24T01:37:55;8.80;;;6.45;;
33475;SDS011;19814;48.224;11.422;2023-08-24T01:40:23;8.90;;;6.53;;
33475;SDS011;19814;48.224;11.422;2023-08-24T01:42:59;8.70;;;6.28;;
33475;SDS011;19814;48.224;11.422;2023-08-24T01:45:29;9.50;;;6.72;;
33475;SDS011;19814;48.224;11.422;2023-08-24T01:47:56;8.95;;;6.85;;
33475;SDS011;19814;48.224;11.422;2023-08-24T01:50:23;10.95;;;7.07;;
33475;SDS011;19814;48.224;11.422;2023-08-24T01:52:49;9.82;;;7.43;;
33475;SDS011;19814;48.224;11.422;2023-08-24T01:55:18;10.43;;;6.57;;
33475;SDS011;19814;48.224;11.422;2023-08-24T01:57:44;8.85;;;7.30;;
33475;SDS011;19814;48.224;11.422;2023-08-24T02:00:10;10.20;;;7.35;;
33475;SDS011;19814;48.224;11.422;2023-08-24T02:02:35;8.68;;;6.85;;
33475;SDS011;19814;48.224;11.422;2023-08-24T02:05:01;7.88;;;5.72;;
33475;SDS011;19814;48.224;11.422;2023-08-24T02:07:28;9.63;;;5.53;;
33475;SDS011;19814;48.224;11.422;2023-08-24T02:09:54;7.55;;;5.50;;
33475;SDS011;19814;48.224;11.422;2023-08-24T02:12:19;8.10;;;5.47;;
33475;SDS011;19814;48.224;11.422;2023-08-24T02:14:45;6.85;;;5.88;;
33475;SDS011;19814;48.224;11.422;2023-08-24T02:17:10;7.57;;;5.75;;
33475;SDS011;19814;48.224;11.422;2023-08-24T02:19:36;9.52;;;6.25;;
33475;SDS011;19814;48.224;11.422;2023-08-24T02:22:01;7.07;;;5.90;;
33475;SDS011;19814;48.224;11.422;2023-08-24T02:24:27;8.88;;;7.00;;
33475;SDS011;19814;48.224;11.422;2023-08-24T02:26:52;8.30;;;6.35;;
33475;SDS011;19814;48.224;11.422;2023-08-24T02:29:18;8.95;;;7.00;;
33475;SDS011;19814;48.224;11.422;2023-08-24T02:31:43;10.75;;;7.05;;
33475;SDS011;19814;48.224;11.422;2023-08-24T02:34:09;9.27;;;6.20;;
33475;SDS011;19814;48.224;11.422;2023-08-24T02:36:35;15.40;;;6.45;;
33475;SDS011;19814;48.224;11.422;2023-08-24T02:39:00;8.40;;;6.25;;
33475;SDS011;19814;48.224;11.422;2023-08-24T02:41:26;11.02;;;6.88;;
33475;SDS011;19814;48.224;11.422;2023-08-24T02:43:52;9.80;;;7.70;;
33475;SDS011;19814;48.224;11.422;2023-08-24T02:46:17;9.30;;;7.13;;
33475;SDS011;19814;48.224;11.422;2023-08-24T02:48:46;8.77;;;7.55;;
33475;SDS011;19814;48.224;11.422;2023-08-24T02:51:12;11.98;;;7.72;;
33475;SDS011;19814;48.224;11.422;2023-08-24T02:53:38;11.45;;;7.15;;
33475;SDS011;19814;48.224;11.422;2023-08-24T02:56:03;9.80;;;7.97;;
33475;SDS011;19814;48.224;11.422;2023-08-24T02:58:29;10.80;;;7.93;;
33475;SDS011;19814;48.224;11.422;2023-08-24T03:00:55;9.45;;;8.23;;
33475;SDS011;19814;48.224;11.422;2023-08-24T03:03:21;8.77;;;6.60;;
33475;SDS011;19814;48.224;11.422;2023-08-24T03:05:53;8.77;;;6.20;;
33475;SDS011;19814;48.224;11.422;2023-08-24T03:08:26;8.65;;;5.97;;
33475;SDS011;19814;48.224;11.422;2023-08-24T03:10:52;6.93;;;5.63;;
33475;SDS011;19814;48.224;11.422;2023-08-24T03:13:18;7.63;;;5.40;;
33475;SDS011;19814;48.224;11.422;2023-08-24T03:15:44;8.00;;;6.40;;
33475;SDS011;19814;48.224;11.422;2023-08-24T03:18:11;8.05;;;5.68;;
33475;SDS011;19814;48.224;11.422;2023-08-24T03:20:38;8.07;;;6.20;;
33475;SDS011;19814;48.224;11.422;2023-08-24T03:23:04;9.15;;;6.65;;
33475;SDS011;19814;48.224;11.422;2023-08-24T03:25:30;10.20;;;7.70;;
33475;SDS011;19814;48.224;11.422;2023-08-24T03:27:56;9.00;;;6.90;;
33475;SDS011;19814;48.224;11.422;2023-08-24T03:30:22;9.77;;;6.82;;
33475;SDS011;19814;48.224;11.422;2023-08-24T03:32:47;10.15;;;7.00;;
33475;SDS011;19814;48.224;11.422;2023-08-24T03:35:13;10.15;;;6.97;;
33475;SDS011;19814;48.224;11.422;2023-08-24T03:37:40;8.85;;;7.13;;
33475;SDS011;19814;48.224;11.422;2023-08-24T03:40:05;9.50;;;7.80;;
33475;SDS011;19814;48.224;11.422;2023-08-24T03:42:31;9.48;;;7.78;;
33475;SDS011;19814;48.224;11.422;2023-08-24T03:44:58;11.40;;;7.82;;
33475;SDS011;19814;48.224;11.422;2023-08-24T03:47:24;10.05;;;7.78;;
33475;SDS011;19814;48.224;11.422;2023-08-24T03:49:50;13.32;;;7.47;;
33475;SDS011;19814;48.224;11.422;2023-08-24T03:52:16;10.38;;;8.15;;
33475;SDS011;19814;48.224;11.422;2023-08-24T03:54:41;13.50;;;9.25;;
33475;SDS011;19814;48.224;11.422;2023-08-24T03:57:07;11.57;;;8.93;;
33475;SDS011;19814;48.224;11.422;2023-08-24T03:59:33;11.57;;;8.80;;
33475;SDS011;19814;48.224;11.422;2023-08-24T04:01:58;12.45;;;8.95;;
33475;SDS011;19814;48.224;11.422;2023-08-24T04:04:27;10.88;;;8.80;;
33475;SDS011;19814;48.224;11.422;2023-08-24T04:06:53;9.65;;;8.55;;
33475;SDS011;19814;48.224;11.422;2023-08-24T04:09:18;10.52;;;8.60;;
33475;SDS011;19814;48.224;11.422;2023-08-24T04:11:44;11.27;;;9.23;;
33475;SDS011;19814;48.224;11.422;2023-08-24T04:14:10;11.13;;;8.60;;
33475;SDS011;19814;48.224;11.422;2023-08-24T04:16:35;8.90;;;7.72;;
33475;SDS011;19814;48.224;11.422;2023-08-24T04:19:01;12.73;;;8.30;;
33475;SDS011;19814;48.224;11.422;2023-08-24T04:21:26;11.88;;;8.30;;
33475;SDS011;19814;48.224;11.422;2023-08-24T04:23:52;11.00;;;7.57;;
33475;SDS011;19814;48.224;11.422;2023-08-24T04:26:18;10.82;;;8.07;;
33475;SDS011;19814;48.224;11.422;2023-08-24T04:28:43;10.57;;;7.63;;
33475;SDS011;19814;48.224;11.422;2023-08-24T04:31:09;10.75;;;7.97;;
33475;SDS011;19814;48.224;11.422;2023-08-24T04:33:35;10.35;;;8.43;;
33475;SDS011;19814;48.224;11.422;2023-08-24T04:36:01;16.02;;;9.32;;
33475;SDS011;19814;48.224;11.422;2023-08-24T04:38:28;12.63;;;9.05;;
33475;SDS011;19814;48.224;11.422;2023-08-24T04:40:54;12.75;;;8.98;;
33475;SDS011;19814;48.224;11.422;2023-08-24T04:43:22;11.40;;;8.95;;
33475;SDS011;19814;48.224;11.422;2023-08-24T04:45:48;12.23;;;8.85;;
33475;SDS011;19814;48.224;11.422;2023-08-24T04:48:19;11.43;;;9.13;;
33475;SDS011;19814;48.224;11.422;2023-08-24T04:50:45;12.15;;;8.73;;
33475;SDS011;19814;48.224;11.422;2023-08-24T04:53:14;12.27;;;9.57;;
33475;SDS011;19814;48.224;11.422;2023-08-24T04:55:41;12.48;;;8.77;;
33475;SDS011;19814;48.224;11.422;2023-08-24T04:58:07;12.23;;;9.07;;
33475;SDS011;19814;48.224;11.422;2023-08-24T05:00:33;14.23;;;9.40;;
33475;SDS011;19814;48.224;11.422;2023-08-24T05:03:00;13.02;;;8.90;;
33475;SDS011;19814;48.224;11.422;2023-08-24T05:05:26;13.10;;;8.95;;
33475;SDS011;19814;48.224;11.422;2023-08-24T05:07:54;11.95;;;9.05;;
33475;SDS011;19814;48.224;11.422;2023-08-24T05:10:19;15.20;;;9.60;;
33475;SDS011;19814;48.224;11.422;2023-08-24T05:12:45;12.43;;;9.35;;
33475;SDS011;19814;48.224;11.422;2023-08-24T05:15:10;13.85;;;10.13;;
33475;SDS011;19814;48.224;11.422;2023-08-24T05:17:38;13.27;;;10.35;;
33475;SDS011;19814;48.224;11.422;2023-08-24T05:20:03;11.80;;;10.27;;
33475;SDS011;19814;48.224;11.422;2023-08-24T05:22:29;13.38;;;10.63;;
33475;SDS011;19814;48.224;11.422;2023-08-24T05:24:55;13.82;;;10.00;;
33475;SDS011;19814;48.224;11.422;2023-08-24T05:27:20;13.75;;;10.07;;
33475;SDS011;19814;48.224;11.422;2023-08-24T05:29:46;11.50;;;9.30;;
33475;SDS011;19814;48.224;11.422;2023-08-24T05:32:11;13.57;;;9.68;;
33475;SDS011;19814;48.224;11.422;2023-08-24T05:34:37;17.02;;;9.98;;
33475;SDS011;19814;48.224;11.422;2023-08-24T05:37:02;16.27;;;10.88;;
33475;SDS011;19814;48.224;11.422;2023-08-24T05:39:28;10.85;;;9.35;;
33475;SDS011;19814;48.224;11.422;2023-08-24T05:41:53;15.43;;;10.15;;
33475;SDS011;19814;48.224;11.422;2023-08-24T05:44:19;14.30;;;11.25;;
33475;SDS011;19814;48.224;11.422;2023-08-24T05:46:46;11.85;;;10.55;;
33475;SDS011;19814;48.224;11.422;2023-08-24T05:49:12;16.50;;;10.13;;
33475;SDS011;19814;48.224;11.422;2023-08-24T05:51:38;11.57;;;10.13;;
33475;SDS011;19814;48.224;11.422;2023-08-24T05:54:03;13.30;;;10.35;;
33475;SDS011;19814;48.224;11.422;2023-08-24T05:56:29;12.02;;;9.82;;
33475;SDS011;19814;48.224;11.422;2023-08-24T05:58:54;12.20;;;9.65;;
33475;SDS011;19814;48.224;11.422;2023-08-24T06:01:22;14.02;;;9.73;;
33475;SDS011;19814;48.224;11.422;2023-08-24T06:03:48;12.68;;;9.38;;
33475;SDS011;19814;48.224;11.422;2023-08-24T06:06:14;12.38;;;9.27;;
33475;SDS011;19814;48.224;11.422;2023-08-24T06:08:41;12.63;;;9.55;;
33475;SDS011;19814;48.224;11.422;2023-08-24T06:11:07;13.63;;;8.73;;
33475;SDS011;19814;48.224;11.422;2023-08-24T06:13:33;12.90;;;8.95;;
33475;SDS011;19814;48.224;11.422;2023-08-24T06:15:59;11.20;;;8.68;;
33475;SDS011;19814;48.224;11.422;2023-08-24T06:18:24;13.27;;;8.73;;
33475;SDS011;19814;48.224;11.422;2023-08-24T06:20:50;12.35;;;8.57;;
33475;SDS011;19814;48.224;11.422;2023-08-24T06:23:16;10.45;;;8.70;;
33475;SDS011;19814;48.224;11.422;2023-08-24T06:25:42;10.68;;;7.90;;
33475;SDS011;19814;48.224;11.422;2023-08-24T06:28:08;12.68;;;8.60;;
33475;SDS011;19814;48.224;11.422;2023-08-24T06:30:40;10.35;;;8.38;;
33475;SDS011;19814;48.224;11.422;2023-08-24T06:33:07;9.75;;;8.20;;
33475;SDS011;19814;48.224;11.422;2023-08-24T06:35:34;10.45;;;7.82;;
33475;SDS011;19814;48.224;11.422;2023-08-24T06:38:00;13.68;;;8.55;;
33475;SDS011;19814;48.224;11.422;2023-08-24T06:40:26;12.98;;;8.02;;
33475;SDS011;19814;48.224;11.422;2023-08-24T06:42:51;12.15;;;8.32;;
33475;SDS011;19814;48.224;11.422;2023-08-24T06:45:17;12.95;;;7.80;;
33475;SDS011;19814;48.224;11.422;2023-08-24T06:47:43;12.93;;;7.30;;
33475;SDS011;19814;48.224;11.422;2023-08-24T06:50:10;8.52;;;7.53;;
33475;SDS011;19814;48.224;11.422;2023-08-24T06:52:35;13.00;;;8.15;;
33475;SDS011;19814;48.224;11.422;2023-08-24T06:55:01;10.25;;;8.10;;
33475;SDS011;19814;48.224;11.422;2023-08-24T06:57:27;12.48;;;7.90;;
33475;SDS011;19814;48.224;11.422;2023-08-24T06:59:52;11.18;;;7.93;;
33475;SDS011;19814;48.224;11.422;2023-08-24T07:02:18;10.63;;;7.55;;
33475;SDS011;19814;48.224;11.422;2023-08-24T07:04:44;10.38;;;6.53;;
33475;SDS011;19814;48.224;11.422;2023-08-24T07:07:10;8.38;;;6.18;;
33475;SDS011;19814;48.224;11.422;2023-08-24T07:09:35;8.45;;;6.55;;
33475;SDS011;19814;48.224;11.422;2023-08-24T07:12:04;10.73;;;6.07;;
33475;SDS011;19814;48.224;11.422;2023-08-24T07:14:32;8.90;;;5.88;;
33475;SDS011;19814;48.224;11.422;2023-08-24T07:16:58;8.55;;;6.05;;
33475;SDS011;19814;48.224;11.422;2023-08-24T07:19:24;8.98;;;5.78;;
33475;SDS011;19814;48.224;11.422;2023-08-24T07:21:49;11.15;;;6.15;;
33475;SDS011;19814;48.224;11.422;2023-08-24T07:24:15;8.02;;;5.22;;
33475;SDS011;19814;48.224;11.422;2023-08-24T07:26:43;8.20;;;5.68;;
33475;SDS011;19814;48.224;11.422;2023-08-24T07:29:10;10.20;;;5.97;;
33475;SDS011;19814;48.224;11.422;2023-08-24T07:31:36;8.63;;;5.93;;
33475;SDS011;19814;48.224;11.422;2023-08-24T07:34:01;9.57;;;6.20;;
33475;SDS011;19814;48.224;11.422;2023-08-24T07:36:28;9.30;;;5.75;;
33475;SDS011;19814;48.224;11.422;2023-08-24T07:38:54;10.13;;;5.65;;
33475;SDS011;19814;48.224;11.422;2023-08-24T07:41:19;10.02;;;6.15;;
33475;SDS011;19814;48.224;11.422;2023-08-24T07:43:45;9.13;;;5.22;;
33475;SDS011;19814;48.224;11.422;2023-08-24T07:46:11;8.00;;;5.63;;
33475;SDS011;19814;48.224;11.422;2023-08-24T07:48:36;7.25;;;5.25;;
33475;SDS011;19814;48.224;11.422;2023-08-24T07:51:02;7.18;;;5.45;;
33475;SDS011;19814;48.224;11.422;2023-08-24T07:53:27;9.60;;;5.45;;
33475;SDS011;19814;48.224;11.422;2023-08-24T07:55:54;9.05;;;5.95;;
33475;SDS011;19814;48.224;11.422;2023-08-24T07:58:22;7.60;;;5.15;;
33475;SDS011;19814;48.224;11.422;2023-08-24T08:00:49;7.95;;;5.57;;
33475;SDS011;19814;48.224;11.422;2023-08-24T08:03:16;10.55;;;5.60;;
33475;SDS011;19814;48.224;11.422;2023-08-24T08:05:42;8.60;;;5.25;;
33475;SDS011;19814;48.224;11.422;2023-08-24T08:08:08;9.18;;;5.60;;
33475;SDS011;19814;48.224;11.422;2023-08-24T08:10:33;7.50;;;4.97;;
33475;SDS011;19814;48.224;11.422;2023-08-24T08:12:59;7.35;;;5.40;;
33475;SDS011;19814;48.224;11.422;2023-08-24T08:15:24;9.02;;;5.82;;
33475;SDS011;19814;48.224;11.422;2023-08-24T08:17:50;9.45;;;6.00;;
33475;SDS011;19814;48.224;11.422;2023-08-24T08:20:16;6.82;;;5.80;;
33475;SDS011;19814;48.224;11.422;2023-08-24T08:22:41;7.95;;;5.18;;
33475;SDS011;19814;48.224;11.422;2023-08-24T08:25:07;10.18;;;6.10;;
33475;SDS011;19814;48.224;11.422;2023-08-24T08:27:33;8.27;;;4.97;;
33475;SDS011;19814;48.224;11.422;2023-08-24T08:29:58;6.95;;;5.45;;
33475;SDS011;19814;48.224;11.422;2023-08-24T08:32:24;7.38;;;5.55;;
33475;SDS011;19814;48.224;11.422;2023-08-24T08:34:53;7.95;;;5.95;;
33475;SDS011;19814;48.224;11.422;2023-08-24T08:37:21;9.23;;;6.05;;
33475;SDS011;19814;48.224;11.422;2023-08-24T08:39:47;8.40;;;6.07;;
33475;SDS011;19814;48.224;11.422;2023-08-24T08:42:13;7.47;;;5.78;;
33475;SDS011;19814;48.224;11.422;2023-08-24T08:44:39;9.98;;;6.00;;
33475;SDS011;19814;48.224;11.422;2023-08-24T08:47:07;8.70;;;6.15;;
33475;SDS011;19814;48.224;11.422;2023-08-24T08:49:35;8.25;;;6.18;;
33475;SDS011;19814;48.224;11.422;2023-08-24T08:52:02;10.20;;;6.15;;
33475;SDS011;19814;48.224;11.422;2023-08-24T08:54:28;7.45;;;6.00;;
33475;SDS011;19814;48.224;11.422;2023-08-24T08:56:54;8.13;;;5.85;;
33475;SDS011;19814;48.224;11.422;2023-08-24T08:59:20;7.60;;;6.13;;
33475;SDS011;19814;48.224;11.422;2023-08-24T09:01:47;8.85;;;6.18;;
33475;SDS011;19814;48.224;11.422;2023-08-24T09:04:15;7.07;;;5.82;;
33475;SDS011;19814;48.224;11.422;2023-08-24T09:06:41;18.50;;;5.82;;
33475;SDS011;19814;48.224;11.422;2023-08-24T09:09:07;10.88;;;5.97;;
33475;SDS011;19814;48.224;11.422;2023-08-24T09:11:33;11.27;;;6.32;;
33475;SDS011;19814;48.224;11.422;2023-08-24T09:13:58;7.60;;;5.68;;
33475;SDS011;19814;48.224;11.422;2023-08-24T09:16:24;7.32;;;5.40;;
33475;SDS011;19814;48.224;11.422;2023-08-24T09:18:54;7.15;;;5.80;;
33475;SDS011;19814;48.224;11.422;2023-08-24T09:21:20;7.35;;;5.75;;
33475;SDS011;19814;48.224;11.422;2023-08-24T09:23:55;8.43;;;6.15;;
33475;SDS011;19814;48.224;11.422;2023-08-24T09:26:34;8.90;;;6.28;;
33475;SDS011;19814;48.224;11.422;2023-08-24T09:29:10;7.65;;;5.32;;
33475;SDS011;19814;48.224;11.422;2023-08-24T09:31:39;9.35;;;5.45;;
33475;SDS011;19814;48.224;11.422;2023-08-24T09:34:05;6.63;;;5.15;;
33475;SDS011;19814;48.224;11.422;2023-08-24T09:36:32;8.68;;;5.97;;
33475;SDS011;19814;48.224;11.422;2023-08-24T09:38:59;9.60;;;5.65;;
33475;SDS011;19814;48.224;11.422;2023-08-24T09:41:41;8.88;;;5.78;;
33475;SDS011;19814;48.224;11.422;2023-08-24T09:44:14;7.25;;;5.10;;
33475;SDS011;19814;48.224;11.422;2023-08-24T09:46:42;11.23;;;6.10;;
33475;SDS011;19814;48.224;11.422;2023-08-24T09:49:09;8.90;;;5.60;;
33475;SDS011;19814;48.224;11.422;2023-08-24T09:51:37;7.47;;;5.22;;
33475;SDS011;19814;48.224;11.422;2023-08-24T09:54:05;7.95;;;6.03;;
33475;SDS011;19814;48.224;11.422;2023-08-24T09:56:34;8.73;;;5.43;;
33475;SDS011;19814;48.224;11.422;2023-08-24T09:59:20;7.18;;;5.40;;
33475;SDS011;19814;48.224;11.422;2023-08-24T10:01:49;8.77;;;5.78;;
33475;SDS011;19814;48.224;11.422;2023-08-24T10:04:25;8.93;;;5.70;;
33475;SDS011;19814;48.224;11.422;2023-08-24T10:07:03;7.75;;;5.70;;
33475;SDS011;19814;48.224;11.422;2023-08-24T10:09:35;8.90;;;6.45;;
33475;SDS011;19814;48.224;11.422;2023-08-24T10:12:22;8.40;;;6.03;;
33475;SDS011;19814;48.224;11.422;2023-08-24T10:15:01;9.05;;;5.97;;
33475;SDS011;19814;48.224;11.422;2023-08-24T10:17:29;7.05;;;6.00;;
33475;SDS011;19814;48.224;11.422;2023-08-24T10:19:56;7.72;;;5.70;;
33475;SDS011;19814;48.224;11.422;2023-08-24T10:22:26;7.28;;;5.50;;
33475;SDS011;19814;48.224;11.422;2023-08-24T10:24:54;7.07;;;5.38;;
33475;SDS011;19814;48.224;11.422;2023-08-24T10:27:21;9.82;;;5.80;;
33475;SDS011;19814;48.224;11.422;2023-08-24T10:29:48;8.48;;;5.78;;
33475;SDS011;19814;48.224;11.422;2023-08-24T10:32:13;7.78;;;5.95;;
33475;SDS011;19814;48.224;11.422;2023-08-24T10:34:40;8.88;;;5.97;;
33475;SDS011;19814;48.224;11.422;2023-08-24T10:37:09;6.13;;;4.88;;
33475;SDS011;19814;48.224;11.422;2023-08-24T10:39:35;5.40;;;4.55;;
33475;SDS011;19814;48.224;11.422;2023-08-24T10:42:12;6.63;;;4.95;;
33475;SDS011;19814;48.224;11.422;2023-08-24T10:44:39;9.82;;;5.72;;
33475;SDS011;19814;48.224;11.422;2023-08-24T10:47:12;7.78;;;5.13;;
33475;SDS011;19814;48.224;11.422;2023-08-24T10:49:40;6.25;;;4.65;;
33475;SDS011;19814;48.224;11.422;2023-08-24T10:52:16;6.75;;;4.70;;
33475;SDS011;19814;48.224;11.422;2023-08-24T11:02:31;10.70;;;4.60;;
33475;SDS011;19814;48.224;11.422;2023-08-24T11:05:07;12.23;;;4.93;;
33475;SDS011;19814;48.224;11.422;2023-08-24T11:07:53;7.72;;;4.93;;
33475;SDS011;19814;48.224;11.422;2023-08-24T11:10:20;8.82;;;5.00;;
33475;SDS011;19814;48.224;11.422;2023-08-24T11:18:15;10.20;;;4.55;;
33475;SDS011;19814;48.224;11.422;2023-08-24T11:20:49;9.32;;;5.57;;
33475;SDS011;19814;48.224;11.422;2023-08-24T11:23:16;9.67;;;4.47;;
33475;SDS011;19814;48.224;11.422;2023-08-24T11:25:44;6.60;;;5.25;;
33475;SDS011;19814;48.224;11.422;2023-08-24T11:28:10;5.97;;;4.13;;
33475;SDS011;19814;48.224;11.422;2023-08-24T11:30:36;6.22;;;4.53;;
33475;SDS011;19814;48.224;11.422;2023-08-24T11:33:02;7.47;;;4.68;;
33475;SDS011;19814;48.224;11.422;2023-08-24T11:35:28;8.82;;;4.50;;
33475;SDS011;19814;48.224;11.422;2023-08-24T11:37:57;6.25;;;4.43;;
33475;SDS011;19814;48.224;11.422;2023-08-24T11:40:23;7.03;;;4.65;;
33475;SDS011;19814;48.224;11.422;2023-08-24T11:42:57;5.63;;;4.07;;
33475;SDS011;19814;48.224;11.422;2023-08-24T11:45:24;5.55;;;4.25;;
33475;SDS011;19814;48.224;11.422;2023-08-24T11:47:55;7.85;;;4.68;;
33475;SDS011;19814;48.224;11.422;2023-08-24T11:50:21;6.22;;;4.38;;
33475;SDS011;19814;48.224;11.422;2023-08-24T11:52:48;8.70;;;4.50;;
33475;SDS011;19814;48.224;11.422;2023-08-24T11:55:13;9.65;;;5.00;;
33475;SDS011;19814;48.224;11.422;2023-08-24T11:57:39;6.22;;;4.68;;
33475;SDS011;19814;48.224;11.422;2023-08-24T12:00:06;10.50;;;4.68;;
33475;SDS011;19814;48.224;11.422;2023-08-24T12:02:34;6.50;;;4.22;;
33475;SDS011;19814;48.224;11.422;2023-08-24T12:04:59;7.53;;;4.28;;
33475;SDS011;19814;48.224;11.422;2023-08-24T12:07:26;6.38;;;4.70;;
33475;SDS011;19814;48.224;11.422;2023-08-24T12:09:52;7.10;;;4.80;;
33475;SDS011;19814;48.224;11.422;2023-08-24T12:12:19;6.20;;;3.95;;
33475;SDS011;19814;48.224;11.422;2023-08-24T12:14:46;6.95;;;4.03;;
33475;SDS011;19814;48.224;11.422;2023-08-24T12:17:13;7.07;;;4.43;;
33475;SDS011;19814;48.224;11.422;2023-08-24T12:19:43;10.25;;;4.22;;
33475;SDS011;19814;48.224;11.422;2023-08-24T12:22:13;6.50;;;4.28;;
33475;SDS011;19814;48.224;11.422;2023-08-24T12:24:43;9.93;;;4.25;;
33475;SDS011;19814;48.224;11.422;2023-08-24T12:27:17;8.73;;;4.35;;
33475;SDS011;19814;48.224;11.422;2023-08-24T12:29:47;8.88;;;4.00;;
33475;SDS011;19814;48.224;11.422;2023-08-24T12:32:13;8.05;;;4.10;;
33475;SDS011;19814;48.224;11.422;2023-08-24T12:34:41;6.95;;;4.10;;
33475;SDS011;19814;48.224;11.422;2023-08-24T12:37:07;8.18;;;4.20;;
33475;SDS011;19814;48.224;11.422;2023-08-24T12:39:36;8.43;;;4.28;;
33475;SDS011;19814;48.224;11.422;2023-08-24T12:42:02;10.45;;;3.97;;
33475;SDS011;19814;48.224;11.422;2023-08-24T12:44:28;8.88;;;4.40;;
33475;SDS011;19814;48.224;11.422;2023-08-24T12:46:54;7.88;;;3.65;;
33475;SDS011;19814;48.224;11.422;2023-08-24T12:49:19;9.55;;;4.15;;
33475;SDS011;19814;48.224;11.422;2023-08-24T12:51:45;8.18;;;4.00;;
33475;SDS011;19814;48.224;11.422;2023-08-24T12:54:11;8.35;;;3.95;;
33475;SDS011;19814;48.224;11.422;2023-08-24T12:56:37;8.48;;;4.30;;
33475;SDS011;19814;48.224;11.422;2023-08-24T12:59:04;10.68;;;4.22;;
33475;SDS011;19814;48.224;11.422;2023-08-24T13:01:30;8.32;;;3.80;;
33475;SDS011;19814;48.224;11.422;2023-08-24T13:03:55;7.55;;;4.25;;
33475;SDS011;19814;48.224;11.422;2023-08-24T13:06:21;7.47;;;3.70;;
33475;SDS011;19814;48.224;11.422;2023-08-24T13:08:46;7.63;;;4.18;;
33475;SDS011;19814;48.224;11.422;2023-08-24T13:11:12;7.10;;;3.85;;
33475;SDS011;19814;48.224;11.422;2023-08-24T13:13:37;8.82;;;4.03;;
33475;SDS011;19814;48.224;11.422;2023-08-24T13:16:03;8.05;;;3.90;;
33475;SDS011;19814;48.224;11.422;2023-08-24T13:18:28;7.78;;;3.92;;
33475;SDS011;19814;48.224;11.422;2023-08-24T13:20:54;7.95;;;4.10;;
33475;SDS011;19814;48.224;11.422;2023-08-24T13:23:19;7.32;;;4.10;;
33475;SDS011;19814;48.224;11.422;2023-08-24T13:25:45;8.20;;;4.38;;
33475;SDS011;19814;48.224;11.422;2023-08-24T13:28:10;6.65;;;3.75;;
33475;SDS011;19814;48.224;11.422;2023-08-24T13:30:36;6.07;;;3.78;;
33475;SDS011;19814;48.224;11.422;2023-08-24T13:33:02;7.03;;;3.78;;
33475;SDS011;19814;48.224;11.422;2023-08-24T13:35:27;10.20;;;4.68;;
33475;SDS011;19814;48.224;11.422;2023-08-24T13:37:53;9.57;;;3.88;;
33475;SDS011;19814;48.224;11.422;2023-08-24T13:40:18;6.82;;;3.80;;
33475;SDS011;19814;48.224;11.422;2023-08-24T13:42:44;5.95;;;4.00;;
33475;SDS011;19814;48.224;11.422;2023-08-24T13:45:10;11.48;;;3.97;;
33475;SDS011;19814;48.224;11.422;2023-08-24T13:47:36;6.88;;;3.28;;
33475;SDS011;19814;48.224;11.422;2023-08-24T13:50:01;7.57;;;4.32;;
33475;SDS011;19814;48.224;11.422;2023-08-24T13:52:27;9.88;;;4.20;;
33475;SDS011;19814;48.224;11.422;2023-08-24T13:54:53;10.30;;;3.70;;
33475;SDS011;19814;48.224;11.422;2023-08-24T13:57:18;10.68;;;4.00;;
33475;SDS011;19814;48.224;11.422;2023-08-24T13:59:44;9.35;;;3.95;;
33475;SDS011;19814;48.224;11.422;2023-08-24T14:02:10;8.05;;;3.85;;
33475;SDS011;19814;48.224;11.422;2023-08-24T14:04:37;11.70;;;3.95;;
33475;SDS011;19814;48.224;11.422;2023-08-24T14:07:03;6.07;;;3.83;;
33475;SDS011;19814;48.224;11.422;2023-08-24T14:09:28;12.23;;;3.55;;
33475;SDS011;19814;48.224;11.422;2023-08-24T14:11:54;10.55;;;4.03;;
33475;SDS011;19814;48.224;11.422;2023-08-24T14:14:19;6.18;;;3.63;;
33475;SDS011;19814;48.224;11.422;2023-08-24T14:16:45;7.95;;;4.00;;
33475;SDS011;19814;48.224;11.422;2023-08-24T14:19:11;7.93;;;3.90;;
33475;SDS011;19814;48.224;11.422;2023-08-24T14:21:36;7.82;;;3.92;;
33475;SDS011;19814;48.224;11.422;2023-08-24T14:24:02;8.48;;;3.67;;
33475;SDS011;19814;48.224;11.422;2023-08-24T14:26:28;8.85;;;4.28;;
33475;SDS011;19814;48.224;11.422;2023-08-24T14:31:21;8.48;;;3.50;;
33475;SDS011;19814;48.224;11.422;2023-08-24T14:33:47;10.30;;;4.68;;
33475;SDS011;19814;48.224;11.422;2023-08-24T14:36:12;8.18;;;3.75;;
33475;SDS011;19814;48.224;11.422;2023-08-24T14:38:38;9.50;;;3.80;;
33475;SDS011;19814;48.224;11.422;2023-08-24T14:41:08;9.68;;;4.13;;
33475;SDS011;19814;48.224;11.422;2023-08-24T14:43:34;9.45;;;4.60;;
33475;SDS011;19814;48.224;11.422;2023-08-24T14:46:00;7.95;;;4.28;;
33475;SDS011;19814;48.224;11.422;2023-08-24T14:48:26;9.00;;;4.50;;